Time;durP1;ratioP1;P1;durP2;ratioP2;P2;SDS_P1;SDS_P2;PMS_P1;PMS_P2;Temp;Humidity;BMP_temperature;BMP_pressure;BME280_temperature;BME280_humidity;BME280_pressure;Samples;Min_cycle;Max_cycle;Signal;HPM_P1;HPM_P2
2024/02/20 00:02:27;;;;;;;3.20;1.77;;;;;;;8.31;100.00;102097.28;6105380;28;20263;-68
2024/02/20 00:05:48;;;;;;;5.23;1.70;;;;;;;8.26;100.00;102091.34;6103632;29;20955;-69
2024/02/20 00:09:09;;;;;;;5.87;2.03;;;;;;;8.27;100.00;102088.56;6119869;29;20585;-69
2024/02/20 00:12:32;;;;;;;3.10;1.57;;;;;;;8.31;100.00;102102.66;6107676;29;20236;-68
2024/02/20 00:15:53;;;;;;;3.07;1.40;;;;;;;8.25;100.00;102089.56;6103284;29;20251;-68
2024/02/20 00:19:14;;;;;;;3.70;1.50;;;;;;;8.28;100.00;102103.72;6112297;29;20323;-68
2024/02/20 00:22:35;;;;;;;3.73;1.70;;;;;;;8.29;100.00;102088.47;6104472;29;20747;-68
2024/02/20 00:25:57;;;;;;;3.07;2.10;;;;;;;8.29;100.00;102094.72;6109798;29;20567;-68
2024/02/20 00:29:19;;;;;;;1.43;1.33;;;;;;;8.32;100.00;102096.34;6109434;29;20243;-68
2024/02/20 00:32:40;;;;;;;5.63;2.00;;;;;;;8.29;100.00;102089.34;6088346;29;20267;-68
2024/02/20 00:36:01;;;;;;;5.30;1.90;;;;;;;8.29;100.00;102094.72;6100855;29;20232;-67
2024/02/20 00:39:22;;;;;;;3.90;1.83;;;;;;;8.19;100.00;102082.75;6108811;29;20530;-68
2024/02/20 00:42:45;;;;;;;4.63;1.97;;;;;;;8.02;100.00;102080.19;6097718;28;20322;-68
2024/02/20 00:46:08;;;;;;;2.30;1.60;;;;;;;8.09;100.00;102087.78;6101246;29;20239;-68
2024/02/20 00:49:29;;;;;;;5.10;2.43;;;;;;;8.16;100.00;102092.78;6111545;29;20627;-68
2024/02/20 00:52:50;;;;;;;4.23;2.30;;;;;;;8.22;100.00;102098.66;6105667;29;20236;-68
2024/02/20 00:56:11;;;;;;;2.13;1.90;;;;;;;8.25;100.00;102092.25;6104141;29;20239;-68
2024/02/20 00:59:32;;;;;;;4.00;2.17;;;;;;;8.14;100.00;102092.03;6114295;29;20520;-68
2024/02/20 01:02:54;;;;;;;4.57;2.80;;;;;;;8.03;100.00;102098.06;6097732;29;20228;-67
2024/02/20 01:06:15;;;;;;;7.60;2.57;;;;;;;8.00;100.00;102100.91;6101776;29;20236;-68
2024/02/20 01:09:36;;;;;;;3.03;1.90;;;;;;;8.02;100.00;102094.50;6109360;28;20231;-67
2024/02/20 01:12:59;;;;;;;7.03;2.40;;;;;;;8.03;100.00;102098.91;6108539;29;20602;-68
2024/02/20 01:16:23;;;;;;;4.80;1.93;;;;;;;8.09;100.00;102103.06;6103532;29;20228;-68
2024/02/20 01:19:45;;;;;;;6.20;2.87;;;;;;;8.14;100.00;102094.72;6107259;28;20240;-68
2024/02/20 01:23:06;;;;;;;7.33;2.80;;;;;;;8.17;100.00;102105.28;6104599;29;20227;-67
2024/02/20 01:26:27;;;;;;;4.37;2.00;;;;;;;8.04;100.00;102103.31;6093269;28;20659;-66
2024/02/20 01:29:48;;;;;;;7.23;2.50;;;;;;;8.16;100.00;102111.59;6101429;29;20231;-67
2024/02/20 01:33:09;;;;;;;4.13;1.80;;;;;;;8.13;100.00;102114.47;6106169;29;20255;-68
2024/02/20 01:36:33;;;;;;;1.70;1.50;;;;;;;8.12;100.00;102113.59;6106386;29;20236;-68
2024/02/20 01:39:53;;;;;;;4.63;2.53;;;;;;;8.17;100.00;102106.16;6109858;29;21258;-67
2024/02/20 01:43:14;;;;;;;7.50;1.90;;;;;;;8.16;100.00;102116.97;6106133;29;20223;-67
2024/02/20 01:46:35;;;;;;;3.47;2.27;;;;;;;8.13;100.00;102115.34;6104629;29;20236;-68
2024/02/20 01:49:58;;;;;;;3.57;2.70;;;;;;;8.11;100.00;102117.25;6108860;29;20240;-68
2024/02/20 01:53:22;;;;;;;3.00;2.10;;;;;;;8.11;100.00;102125.31;6097543;29;20614;-68
2024/02/20 01:56:44;;;;;;;1.90;1.40;;;;;;;8.00;100.00;102122.38;6101734;29;20232;-68
2024/02/20 02:00:08;;;;;;;3.13;1.63;;;;;;;7.97;100.00;102120.75;6107110;29;20228;-67
2024/02/20 02:03:35;;;;;;;4.17;2.00;;;;;;;7.99;100.00;102124.19;6112751;29;20236;-67
2024/02/20 02:06:56;;;;;;;3.00;1.90;;;;;;;8.03;100.00;102136.50;6105730;29;20259;-66
2024/02/20 02:10:19;;;;;;;6.33;2.00;;;;;;;8.02;100.00;102133.91;6092695;29;20232;-68
2024/02/20 02:13:40;;;;;;;5.47;2.43;;;;;;;8.09;100.00;102149.56;6111613;29;20235;-68
2024/02/20 02:17:00;;;;;;;4.90;2.97;;;;;;;8.09;100.00;102149.56;6097865;29;20232;-67
2024/02/20 02:20:21;;;;;;;4.67;2.87;;;;;;;8.09;100.00;102132.59;6104606;29;20233;-68
2024/02/20 02:23:43;;;;;;;8.53;3.13;;;;;;;8.04;100.00;102146.28;6112448;29;20232;-69
2024/02/20 02:27:06;;;;;;;5.73;3.63;;;;;;;7.99;100.00;102145.69;6106247;29;20223;-68
2024/02/20 02:30:28;;;;;;;5.70;2.67;;;;;;;7.96;100.00;102156.63;6100448;29;20319;-67
2024/02/20 02:33:49;;;;;;;11.43;3.37;;;;;;;7.98;100.00;102149.34;6102777;29;20751;-67
2024/02/20 02:37:10;;;;;;;10.63;3.97;;;;;;;7.99;100.00;102155.53;6111253;28;20232;-68
2024/02/20 02:40:31;;;;;;;6.40;3.10;;;;;;;8.02;100.00;102166.13;6104802;29;20229;-68
2024/02/20 02:43:53;;;;;;;6.30;3.80;;;;;;;7.99;100.00;102161.78;6114483;29;20231;-67
2024/02/20 02:47:14;;;;;;;10.07;4.77;;;;;;;7.96;100.00;102175.41;6099543;29;20256;-69
2024/02/20 02:50:35;;;;;;;7.83;4.53;;;;;;;7.93;100.00;102172.00;6103506;29;20247;-68
2024/02/20 02:53:56;;;;;;;17.47;5.03;;;;;;;7.94;100.00;102184.50;6109845;29;20252;-68
2024/02/20 02:57:17;;;;;;;7.67;5.07;;;;;;;7.89;100.00;102187.44;6104910;29;20330;-67
2024/02/20 03:00:39;;;;;;;16.57;5.73;;;;;;;7.93;100.00;102180.94;6110230;29;20315;-67
2024/02/20 03:04:04;;;;;;;8.20;4.83;;;;;;;7.91;100.00;102193.59;6115722;29;20362;-68
2024/02/20 03:07:25;;;;;;;17.27;5.57;;;;;;;7.90;100.00;102193.69;6110483;29;20236;-68
2024/02/20 03:10:46;;;;;;;13.23;6.53;;;;;;;7.84;100.00;102207.44;6107500;29;20224;-68
2024/02/20 03:14:09;;;;;;;14.23;5.40;;;;;;;7.70;100.00;102210.88;6122297;29;20235;-68
2024/02/20 03:17:31;;;;;;;17.80;6.37;;;;;;;7.72;100.00;102206.31;6110287;29;20614;-69
2024/02/20 03:20:52;;;;;;;20.90;5.63;;;;;;;7.76;100.00;102225.81;6109673;29;20236;-68
2024/02/20 03:24:13;;;;;;;16.73;6.33;;;;;;;7.77;100.00;102216.78;6118531;29;20228;-68
2024/02/20 03:27:34;;;;;;;12.10;5.07;;;;;;;7.74;100.00;102219.66;6107116;29;20227;-69
2024/02/20 03:30:55;;;;;;;15.63;5.50;;;;;;;7.77;100.00;102224.84;6105508;29;20257;-69
2024/02/20 03:34:17;;;;;;;12.33;4.70;;;;;;;7.81;100.00;102235.34;6113599;29;20236;-68
2024/02/20 03:37:38;;;;;;;13.17;5.67;;;;;;;7.74;100.00;102241.97;6111803;29;20330;-69
2024/02/20 03:40:59;;;;;;;16.27;5.67;;;;;;;7.67;100.00;102243.28;6111350;29;20231;-68
2024/02/20 03:44:20;;;;;;;11.53;5.07;;;;;;;7.57;100.00;102244.72;6109974;29;20240;-68
2024/02/20 03:47:41;;;;;;;12.60;4.60;;;;;;;7.64;100.00;102264.03;6104984;29;20231;-68
2024/02/20 03:51:04;;;;;;;7.53;4.73;;;;;;;7.57;100.00;102247.41;6097726;29;20224;-69
2024/02/20 03:54:25;;;;;;;6.17;4.13;;;;;;;7.51;100.00;102254.94;6113334;29;20535;-68
2024/02/20 03:57:47;;;;;;;13.87;5.43;;;;;;;7.59;100.00;102256.25;6106969;29;20236;-68
2024/02/20 04:01:08;;;;;;;12.23;5.80;;;;;;;7.62;100.00;102245.34;6101681;29;20228;-68
2024/02/20 04:04:29;;;;;;;17.23;6.50;;;;;;;7.57;100.00;102260.81;6116917;29;20239;-68
2024/02/20 04:07:51;;;;;;;18.30;5.63;;;;;;;7.62;100.00;102253.38;6110473;29;20231;-68
2024/02/20 04:11:12;;;;;;;17.77;6.17;;;;;;;7.58;100.00;102251.81;6102978;29;20338;-67
2024/02/20 04:14:33;;;;;;;15.00;6.10;;;;;;;7.54;100.00;102261.00;6116162;29;20232;-68
2024/02/20 04:17:55;;;;;;;21.27;6.33;;;;;;;7.55;100.00;102261.88;6104600;29;20228;-69
2024/02/20 04:21:16;;;;;;;17.30;6.27;;;;;;;7.59;100.00;102268.81;6103252;29;20335;-69
2024/02/20 04:24:40;;;;;;;11.40;4.53;;;;;;;7.62;100.00;102274.84;6117487;29;20235;-69
2024/02/20 04:28:01;;;;;;;17.57;6.40;;;;;;;7.60;100.00;102274.06;6107611;29;20239;-69
2024/02/20 04:31:22;;;;;;;9.30;4.93;;;;;;;7.65;100.00;102274.72;6106628;29;20263;-68
2024/02/20 04:34:43;;;;;;;11.70;5.37;;;;;;;7.63;100.00;102286.47;6108764;29;20224;-67
2024/02/20 04:38:04;;;;;;;14.93;5.87;;;;;;;7.50;100.00;102280.91;6104524;29;20629;-69
2024/02/20 04:41:27;;;;;;;13.70;5.00;;;;;;;7.58;100.00;102292.06;6110647;29;20334;-68
2024/02/20 04:44:48;;;;;;;13.40;5.57;;;;;;;7.63;100.00;102284.66;6109996;29;20232;-69
2024/02/20 04:48:09;;;;;;;14.60;5.43;;;;;;;7.66;100.00;102280.91;6091001;29;20251;-68
2024/02/20 04:51:30;;;;;;;16.20;6.80;;;;;;;7.64;100.00;102283.69;6105119;29;20235;-69
2024/02/20 04:54:52;;;;;;;14.07;5.70;;;;;;;7.64;100.00;102290.88;6111260;29;20236;-69
2024/02/20 04:58:14;;;;;;;17.23;6.57;;;;;;;7.59;100.00;102283.09;6113654;29;20239;-68
2024/02/20 05:01:34;;;;;;;18.90;8.10;;;;;;;7.56;100.00;102282.38;6100085;29;20228;-68
2024/02/20 05:04:55;;;;;;;21.13;6.20;;;;;;;7.64;100.00;102291.75;6113015;29;20239;-68
2024/02/20 05:08:16;;;;;;;13.03;5.60;;;;;;;7.64;100.00;102293.56;6112022;29;20251;-68
2024/02/20 05:11:38;;;;;;;20.77;7.93;;;;;;;7.62;100.00;102306.19;6107842;29;21088;-69
2024/02/20 05:15:00;;;;;;;23.73;7.13;;;;;;;7.68;100.00;102303.16;6111816;29;20530;-68
2024/02/20 05:18:21;;;;;;;24.63;9.03;;;;;;;7.71;100.00;102303.91;6109570;29;20239;-68
2024/02/20 05:21:42;;;;;;;23.93;8.83;;;;;;;7.65;100.00;102317.66;6104906;29;20260;-68
2024/02/20 05:25:06;;;;;;;27.77;9.43;;;;;;;7.66;100.00;102314.00;6113851;29;20231;-67
2024/02/20 05:28:27;;;;;;;19.90;7.97;;;;;;;7.70;100.00;102320.94;6111353;29;20232;-68
2024/02/20 05:31:49;;;;;;;31.33;9.13;;;;;;;7.70;100.00;102326.31;6101050;29;20232;-68
2024/02/20 05:35:10;;;;;;;16.63;7.60;;;;;;;7.68;100.00;102330.88;6112216;29;20326;-68
2024/02/20 05:38:31;;;;;;;15.83;6.87;;;;;;;7.71;100.00;102338.78;6113154;29;20256;-68
2024/02/20 05:41:52;;;;;;;14.33;6.53;;;;;;;7.76;100.00;102333.19;6103049;29;20235;-68
2024/02/20 05:45:13;;;;;;;15.30;8.20;;;;;;;7.82;100.00;102333.69;6105117;29;20219;-67
2024/02/20 05:48:36;;;;;;;28.70;8.27;;;;;;;7.65;100.00;102335.56;6107809;29;20239;-68
2024/02/20 05:51:59;;;;;;;22.83;9.30;;;;;;;7.69;100.00;102332.63;6106163;29;20231;-68
2024/02/20 05:55:20;;;;;;;16.60;7.50;;;;;;;7.68;100.00;102333.56;6092246;28;20236;-68
2024/02/20 05:58:41;;;;;;;26.37;9.27;;;;;;;7.68;100.00;102325.50;6113615;29;20259;-68
2024/02/20 06:02:02;;;;;;;16.57;7.60;;;;;;;7.69;100.00;102338.00;6104288;29;20230;-68
2024/02/20 06:05:24;;;;;;;19.90;10.00;;;;;;;7.73;100.00;102349.44;6108540;29;20642;-68
2024/02/20 06:08:45;;;;;;;15.20;7.00;;;;;;;7.52;100.00;102338.03;6115341;29;20231;-68
2024/02/20 06:12:09;;;;;;;31.63;8.23;;;;;;;7.62;100.00;102349.13;6107695;29;20235;-67
2024/02/20 06:15:30;;;;;;;15.90;8.40;;;;;;;7.65;100.00;102340.94;6105660;29;20579;-67
2024/02/20 06:18:51;;;;;;;19.77;6.67;;;;;;;7.59;100.00;102344.81;6112879;29;20236;-68
2024/02/20 06:22:13;;;;;;;21.27;7.20;;;;;;;7.53;100.00;102349.63;6109074;29;20231;-67
2024/02/20 06:25:34;;;;;;;23.50;8.73;;;;;;;7.60;100.00;102354.59;6106580;29;20510;-68
2024/02/20 06:28:55;;;;;;;14.50;5.97;;;;;;;7.47;100.00;102358.84;6116292;29;20231;-68
2024/02/20 06:32:16;;;;;;;24.40;7.33;;;;;;;7.58;100.00;102358.28;6103833;29;20618;-68
2024/02/20 06:35:37;;;;;;;21.07;6.90;;;;;;;7.67;100.00;102365.88;6101627;29;20319;-67
2024/02/20 06:38:59;;;;;;;21.20;7.67;;;;;;;7.70;100.00;102347.78;6111967;29;20330;-68
2024/02/20 06:42:21;;;;;;;18.20;6.63;;;;;;;7.79;100.00;102349.97;6116615;29;20780;-67
2024/02/20 06:45:42;;;;;;;17.10;7.87;;;;;;;7.84;100.00;102355.09;6109500;29;20271;-67
2024/02/20 06:49:04;;;;;;;19.83;7.13;;;;;;;7.86;100.00;102354.03;6114593;29;20318;-67
2024/02/20 06:52:25;;;;;;;23.70;7.80;;;;;;;7.80;100.00;102358.91;6103440;29;20236;-67
2024/02/20 06:55:47;;;;;;;20.70;7.77;;;;;;;7.79;100.00;102357.16;6107776;29;20411;-67
2024/02/20 06:59:10;;;;;;;28.43;8.53;;;;;;;7.67;100.00;102365.88;6117084;29;20238;-67
2024/02/20 07:02:31;;;;;;;19.43;8.40;;;;;;;7.70;100.00;102371.94;6104164;29;20239;-67
2024/02/20 07:05:52;;;;;;;22.83;7.80;;;;;;;7.82;100.00;102370.44;6110357;29;20232;-68
2024/02/20 07:09:14;;;;;;;16.20;9.17;;;;;;;7.89;100.00;102366.44;6116804;29;20241;-68
2024/02/20 07:12:36;;;;;;;22.57;7.90;;;;;;;7.69;100.00;102369.34;6111818;29;20252;-66
2024/02/20 07:15:57;;;;;;;22.23;8.17;;;;;;;7.72;100.00;102369.16;6110267;29;20244;-68
2024/02/20 07:19:21;;;;;;;19.50;7.20;;;;;;;7.84;100.00;102376.59;6114215;29;20605;-67
2024/02/20 07:22:42;;;;;;;17.13;7.43;;;;;;;7.75;100.00;102369.00;6107067;29;20240;-68
2024/02/20 07:26:03;;;;;;;19.87;7.70;;;;;;;7.87;100.00;102369.22;6112173;28;20243;-68
2024/02/20 07:29:26;;;;;;;18.77;7.93;;;;;;;7.93;100.00;102374.25;6113872;29;21106;-67
2024/02/20 07:32:47;;;;;;;20.53;7.77;;;;;;;7.83;100.00;102367.66;6103696;29;20240;-68
2024/02/20 07:36:08;;;;;;;17.30;6.80;;;;;;;7.92;100.00;102368.97;6109668;29;20519;-67
2024/02/20 07:39:29;;;;;;;18.93;8.03;;;;;;;7.99;100.00;102360.50;6111525;29;20244;-67
2024/02/20 07:42:50;;;;;;;19.07;7.50;;;;;;;7.92;100.00;102369.84;6107742;29;20239;-67
2024/02/20 07:46:14;;;;;;;22.30;8.37;;;;;;;7.92;100.00;102369.84;6103453;29;20232;-66
2024/02/20 07:49:35;;;;;;;21.87;7.47;;;;;;;7.80;100.00;102359.75;6112162;29;20369;-68
2024/02/20 07:52:56;;;;;;;22.40;6.80;;;;;;;7.86;100.00;102366.63;6105843;29;20236;-67
2024/02/20 07:56:23;;;;;;;14.77;7.17;;;;;;;8.14;100.00;102364.16;6104657;29;20232;-68
2024/02/20 07:59:43;;;;;;;26.20;8.37;;;;;;;8.06;100.00;102358.34;6113467;29;20348;-69
2024/02/20 08:03:06;;;;;;;17.00;7.33;;;;;;;8.22;100.00;102369.97;6100462;29;20315;-68
2024/02/20 08:06:27;;;;;;;23.50;8.23;;;;;;;8.16;100.00;102372.13;6111826;29;20240;-68
2024/02/20 08:09:48;;;;;;;21.73;7.63;;;;;;;8.29;100.00;102381.28;6115734;29;20236;-68
2024/02/20 08:13:09;;;;;;;26.07;8.47;;;;;;;7.91;100.00;102376.16;6110943;29;20263;-67
2024/02/20 08:16:31;;;;;;;22.77;7.07;;;;;;;7.83;100.00;102356.91;6096441;29;20735;-68
2024/02/20 08:19:53;;;;;;;19.83;7.23;;;;;;;7.84;100.00;102363.16;6111388;29;20243;-68
2024/02/20 08:23:14;;;;;;;19.13;8.60;;;;;;;7.92;100.00;102363.59;6118715;29;20228;-68
2024/02/20 08:26:36;;;;;;;18.80;6.77;;;;;;;8.08;100.00;102356.44;6103434;29;20241;-68
2024/02/20 08:29:56;;;;;;;20.83;7.30;;;;;;;8.29;100.00;102367.84;6117843;29;20227;-69
2024/02/20 08:33:17;;;;;;;19.83;8.30;;;;;;;7.99;100.00;102367.69;6112205;29;20319;-68
2024/02/20 08:36:39;;;;;;;20.93;7.30;;;;;;;8.39;100.00;102369.06;6105582;29;20235;-68
2024/02/20 08:40:01;;;;;;;21.27;6.70;;;;;;;8.45;100.00;102371.44;6116563;29;20618;-68
2024/02/20 08:43:22;;;;;;;22.20;8.53;;;;;;;8.49;100.00;102370.31;6113693;29;20334;-68
2024/02/20 08:46:44;;;;;;;17.00;8.17;;;;;;;8.22;100.00;102371.81;6106247;29;20230;-68
2024/02/20 08:50:06;;;;;;;16.47;6.60;;;;;;;8.34;100.00;102353.22;6109406;29;20232;-68
2024/02/20 08:53:28;;;;;;;26.70;7.33;;;;;;;8.26;100.00;102362.66;6106694;29;20243;-68
2024/02/20 08:56:49;;;;;;;20.60;7.13;;;;;;;8.41;100.00;102359.09;6079597;29;20232;-68
2024/02/20 09:00:12;;;;;;;11.77;5.57;;;;;;;8.49;100.00;102362.25;6110078;29;20243;-68
2024/02/20 09:03:32;;;;;;;19.23;6.80;;;;;;;8.66;100.00;102367.53;6083662;29;20235;-69
2024/02/20 09:06:53;;;;;;;17.77;5.93;;;;;;;9.00;100.00;102361.06;6110539;29;20232;-68
2024/02/20 09:10:15;;;;;;;13.63;7.03;;;;;;;8.80;100.00;102355.00;6105739;29;20761;-67
2024/02/20 09:13:36;;;;;;;15.53;6.93;;;;;;;8.92;100.00;102356.16;6108770;29;20251;-67
2024/02/20 09:16:57;;;;;;;12.93;6.47;;;;;;;8.71;100.00;102360.94;6109200;29;20235;-68
2024/02/20 09:20:18;;;;;;;20.20;7.17;;;;;;;9.17;100.00;102355.56;6103383;29;20244;-67
2024/02/20 09:23:39;;;;;;;12.47;7.17;;;;;;;9.10;100.00;102343.41;6107468;29;20319;-68
2024/02/20 09:27:02;;;;;;;14.57;5.43;;;;;;;9.47;100.00;102333.06;6104972;29;20219;-67
2024/02/20 09:30:25;;;;;;;19.83;7.63;;;;;;;9.27;100.00;102340.59;6100446;29;20232;-68
2024/02/20 09:33:45;;;;;;;20.57;6.37;;;;;;;9.90;100.00;102325.91;6106000;29;20236;-68
2024/02/20 09:37:06;;;;;;;14.27;6.83;;;;;;;10.40;100.00;102328.09;6110061;29;20232;-68
2024/02/20 09:40:27;;;;;;;11.00;5.10;;;;;;;10.90;100.00;102338.25;6111662;29;20338;-68
2024/02/20 09:43:50;;;;;;;18.70;5.93;;;;;;;12.14;100.00;102343.06;6111663;29;20319;-68
2024/02/20 09:47:12;;;;;;;16.70;6.57;;;;;;;11.24;100.00;102337.72;6109130;29;20243;-67
2024/02/20 09:50:36;;;;;;;8.23;4.47;;;;;;;11.82;100.00;102345.38;6106842;29;20622;-68
2024/02/20 09:53:59;;;;;;;9.63;5.23;;;;;;;13.20;100.00;102320.63;6110788;29;20235;-68
2024/02/20 09:57:22;;;;;;;14.03;5.07;;;;;;;15.67;100.00;102317.34;6109806;29;20244;-67
2024/02/20 10:00:44;;;;;;;12.00;5.47;;;;;;;14.07;100.00;102326.31;6105747;29;20997;-67
2024/02/20 10:04:07;;;;;;;14.27;6.03;;;;;;;13.88;100.00;102326.06;6100487;29;20286;-68
2024/02/20 10:07:28;;;;;;;14.27;5.13;;;;;;;13.00;100.00;102333.91;6099726;29;20228;-67
2024/02/20 10:10:49;;;;;;;12.00;5.10;;;;;;;10.89;100.00;102342.75;6108464;29;20231;-67
2024/02/20 10:14:10;;;;;;;8.20;4.63;;;;;;;10.49;100.00;102357.16;6115446;29;20666;-68
2024/02/20 10:17:33;;;;;;;13.20;5.53;;;;;;;10.86;100.00;102367.25;6106837;29;21080;-67
2024/02/20 10:21:01;;;;;;;8.00;4.97;;;;;;;10.47;100.00;102369.00;6108024;29;20240;-67
2024/02/20 10:24:22;;;;;;;16.00;7.53;;;;;;;11.67;100.00;102350.00;6109387;29;20235;-68
2024/02/20 10:27:45;;;;;;;14.23;5.10;;;;;;;10.91;100.00;102348.06;6102864;29;20235;-68
2024/02/20 10:31:06;;;;;;;17.97;6.07;;;;;;;10.45;100.00;102361.03;6103372;29;20550;-68
2024/02/20 10:34:28;;;;;;;20.80;7.07;;;;;;;10.68;100.00;102346.88;6106228;29;20236;-68
2024/02/20 10:38:01;;;;;;;13.77;5.63;;;;;;;10.72;100.00;102355.66;6103320;29;20248;-68
2024/02/20 10:41:23;;;;;;;9.87;5.43;;;;;;;10.00;100.00;102353.09;6102853;29;20247;-67
2024/02/20 10:44:45;;;;;;;14.30;6.20;;;;;;;9.91;100.00;102359.09;6114102;29;20315;-68
2024/02/20 10:48:10;;;;;;;10.43;5.03;;;;;;;9.76;100.00;102360.91;6107605;29;20233;-68
2024/02/20 10:51:33;;;;;;;16.80;6.13;;;;;;;10.11;100.00;102361.44;6106767;29;20240;-68
2024/02/20 10:54:56;;;;;;;15.13;8.30;;;;;;;10.29;100.00;102360.25;6112867;29;20616;-68
2024/02/20 10:58:17;;;;;;;14.53;5.40;;;;;;;9.75;100.00;102367.25;6110639;29;20232;-67
2024/02/20 11:01:39;;;;;;;17.47;7.53;;;;;;;9.66;100.00;102368.66;6101284;29;20240;-67
2024/02/20 11:05:00;;;;;;;12.70;6.57;;;;;;;9.58;100.00;102353.94;6105305;29;20252;-66
2024/02/20 11:08:27;;;;;;;16.87;4.67;;;;;;;9.40;100.00;102365.81;6114306;29;20228;-68
2024/02/20 11:11:48;;;;;;;12.40;4.73;;;;;;;9.39;100.00;102362.25;6106765;29;20526;-66
2024/02/20 11:15:11;;;;;;;10.50;5.37;;;;;;;9.67;100.00;102361.47;6110515;29;20251;-67
2024/02/20 11:18:32;;;;;;;14.53;4.37;;;;;;;9.50;100.00;102356.22;6106216;29;20235;-68
2024/02/20 11:21:54;;;;;;;12.13;5.00;;;;;;;9.47;100.00;102351.06;6105891;29;20232;-67
2024/02/20 11:25:27;;;;;;;16.80;5.10;;;;;;;9.28;100.00;102358.50;6114222;29;20227;-67
2024/02/20 11:28:47;;;;;;;9.13;5.13;;;;;;;9.55;100.00;102354.13;6118220;29;20255;-68
2024/02/20 11:32:12;;;;;;;14.57;4.80;;;;;;;9.73;100.00;102347.63;6108453;29;20240;-69
2024/02/20 11:35:33;;;;;;;15.37;5.87;;;;;;;10.01;100.00;102344.91;6108981;29;20232;-67
2024/02/20 11:39:08;;;;;;;12.47;5.10;;;;;;;11.08;100.00;102342.38;6113564;29;20681;-67
2024/02/20 11:42:30;;;;;;;14.03;4.27;;;;;;;10.21;100.00;102338.31;6112504;29;20240;-67
2024/02/20 11:45:58;;;;;;;19.30;6.47;;;;;;;10.16;100.00;102345.81;6111310;29;20243;-67
2024/02/20 11:49:21;;;;;;;14.57;5.33;;;;;;;11.67;100.00;102332.91;6111442;29;20229;-68
2024/02/20 11:52:43;;;;;;;9.77;4.87;;;;;;;11.62;100.00;102327.81;6105070;29;20235;-68
2024/02/20 11:56:05;;;;;;;10.63;4.97;;;;;;;10.85;100.00;102322.34;6106919;29;20247;-67
2024/02/20 11:59:28;;;;;;;12.73;4.93;;;;;;;11.04;100.00;102317.47;6118735;29;20564;-68
2024/02/20 12:02:49;;;;;;;12.63;5.43;;;;;;;10.65;100.00;102333.59;6109238;29;20331;-67
2024/02/20 12:06:11;;;;;;;8.30;4.60;;;;;;;10.05;100.00;102329.44;6099275;29;20243;-68
2024/02/20 12:09:32;;;;;;;15.70;4.60;;;;;;;10.35;100.00;102319.41;6117538;29;20235;-68
2024/02/20 12:12:53;;;;;;;10.70;5.23;;;;;;;10.49;100.00;102323.94;6107419;29;20235;-68
2024/02/20 12:16:26;;;;;;;12.00;4.90;;;;;;;10.33;100.00;102321.34;6110296;29;20223;-68
2024/02/20 12:19:47;;;;;;;11.37;4.77;;;;;;;10.71;100.00;102317.03;6105331;28;20234;-67
2024/02/20 12:23:08;;;;;;;12.10;5.40;;;;;;;10.75;100.00;102318.53;6113415;29;20227;-69
2024/02/20 12:26:29;;;;;;;10.93;5.73;;;;;;;11.26;100.00;102304.22;6117428;29;20311;-68
2024/02/20 12:29:50;;;;;;;11.90;4.80;;;;;;;10.99;100.00;102305.25;6115000;29;20232;-68
2024/02/20 12:33:15;;;;;;;10.80;5.30;;;;;;;11.21;100.00;102295.59;6108368;29;20243;-68
2024/02/20 12:36:38;;;;;;;10.03;5.20;;;;;;;10.69;100.00;102299.19;6105123;29;20236;-69
2024/02/20 12:39:59;;;;;;;14.07;5.60;;;;;;;10.06;100.00;102293.44;6111969;29;20235;-67
2024/02/20 12:43:20;;;;;;;13.27;6.03;;;;;;;10.05;100.00;102298.00;6115827;29;20327;-67
2024/02/20 12:46:41;;;;;;;16.83;5.60;;;;;;;9.93;100.00;102296.06;6392023;23;20285;-66
2024/02/20 12:50:04;;;;;;;15.63;6.63;;;;;;;9.64;100.00;102303.28;6144729;28;20227;-68
2024/02/20 12:53:25;;;;;;;11.90;5.47;;;;;;;9.82;100.00;102292.31;6141240;28;20238;-68
2024/02/20 12:56:46;;;;;;;13.20;5.07;;;;;;;9.57;100.00;102306.47;6130516;28;20231;-68
2024/02/20 13:00:09;;;;;;;9.87;5.40;;;;;;;9.49;100.00;102301.53;6121859;28;20235;-66
2024/02/20 13:03:30;;;;;;;9.60;5.57;;;;;;;9.51;100.00;102307.69;6144638;28;20235;-66
2024/02/20 13:06:52;;;;;;;9.47;5.00;;;;;;;9.75;100.00;102299.03;6143117;28;21773;-67
2024/02/20 13:10:15;;;;;;;13.77;6.23;;;;;;;9.90;100.00;102298.97;6136265;28;20478;-66
2024/02/20 13:13:39;;;;;;;12.17;5.10;;;;;;;9.85;100.00;102303.75;6148588;28;20238;-67
2024/02/20 13:17:00;;;;;;;13.80;6.90;;;;;;;9.74;100.00;102306.28;6139750;28;20246;-68
2024/02/20 13:20:21;;;;;;;13.67;6.93;;;;;;;9.70;100.00;102298.47;6137609;28;20442;-68
2024/02/20 13:23:44;;;;;;;15.47;6.13;;;;;;;9.74;100.00;102297.34;6142688;28;20234;-68
2024/02/20 13:27:05;;;;;;;20.83;6.73;;;;;;;9.73;100.00;102293.75;6136221;28;20226;-68
2024/02/20 13:30:26;;;;;;;17.83;5.47;;;;;;;9.73;100.00;102307.22;6134940;28;20626;-67
2024/02/20 13:33:47;;;;;;;16.23;6.37;;;;;;;9.66;100.00;102308.56;6141672;28;20219;-68
2024/02/20 13:37:08;;;;;;;17.23;8.00;;;;;;;9.68;100.00;102301.25;6136473;28;20230;-69
2024/02/20 13:40:30;;;;;;;13.30;5.67;;;;;;;9.71;100.00;102287.59;6142771;28;20577;-67
2024/02/20 13:43:51;;;;;;;15.83;5.90;;;;;;;9.97;100.00;102288.66;6117613;28;20254;-67
2024/02/20 13:47:14;;;;;;;14.23;5.23;;;;;;;9.92;100.00;102285.38;6123974;28;20235;-68
2024/02/20 13:50:35;;;;;;;17.37;7.00;;;;;;;9.80;100.00;102284.34;6143855;28;20239;-67
2024/02/20 13:53:56;;;;;;;15.00;5.97;;;;;;;9.86;100.00;102286.66;6144828;28;20231;-67
2024/02/20 13:57:20;;;;;;;18.03;5.73;;;;;;;9.99;100.00;102284.03;6142319;28;20251;-67
2024/02/20 14:00:42;;;;;;;10.67;5.17;;;;;;;9.94;100.00;102283.47;6127281;28;20434;-67
2024/02/20 14:04:03;;;;;;;18.67;7.47;;;;;;;9.94;100.00;102283.47;6140524;28;20255;-68
2024/02/20 14:07:24;;;;;;;11.43;6.83;;;;;;;10.14;100.00;102278.56;6130578;28;20257;-67
2024/02/20 14:10:45;;;;;;;15.50;6.00;;;;;;;9.87;100.00;102263.25;6133765;28;20266;-67
2024/02/20 14:14:08;;;;;;;15.30;7.37;;;;;;;9.96;100.00;102281.53;6146216;28;20242;-68
2024/02/20 14:17:31;;;;;;;11.70;5.60;;;;;;;9.98;100.00;102271.53;6131685;28;20238;-68
2024/02/20 14:20:57;;;;;;;15.37;5.63;;;;;;;10.04;100.00;102269.31;6141495;28;20521;-68
2024/02/20 14:24:17;;;;;;;15.57;6.07;;;;;;;9.83;100.00;102262.59;6141148;28;20480;-68
2024/02/20 14:27:38;;;;;;;14.73;6.40;;;;;;;10.04;100.00;102265.75;6137734;28;20313;-68
2024/02/20 14:31:01;;;;;;;20.70;5.80;;;;;;;10.01;100.00;102265.94;6132600;28;20498;-67
2024/02/20 14:34:22;;;;;;;17.57;6.60;;;;;;;10.13;100.00;102274.16;6135336;28;20223;-67
2024/02/20 14:37:43;;;;;;;14.10;5.00;;;;;;;9.98;100.00;102277.78;6137178;28;20250;-67
2024/02/20 14:41:04;;;;;;;19.37;7.13;;;;;;;9.88;100.00;102273.06;6137583;28;20836;-69
2024/02/20 14:44:25;;;;;;;17.47;6.13;;;;;;;9.92;100.00;102267.41;6144973;28;20324;-67
2024/02/20 14:47:49;;;;;;;12.37;4.87;;;;;;;9.94;100.00;102257.41;6133883;28;20509;-68
2024/02/20 14:51:10;;;;;;;16.13;5.63;;;;;;;10.07;100.00;102260.16;6141051;28;20692;-67
2024/02/20 14:54:32;;;;;;;15.23;6.83;;;;;;;10.08;100.00;102256.50;6145798;28;20264;-67
2024/02/20 14:57:53;;;;;;;12.23;5.50;;;;;;;10.14;100.00;102239.97;6136437;28;20322;-68
2024/02/20 15:01:21;;;;;;;12.70;5.50;;;;;;;10.06;100.00;102239.56;6131953;28;20554;-68
2024/02/20 15:04:43;;;;;;;9.40;5.00;;;;;;;9.93;100.00;102226.03;6151192;28;20230;-67
2024/02/20 15:08:05;;;;;;;14.70;5.67;;;;;;;10.06;100.00;102232.34;6144930;28;20238;-68
2024/02/20 15:11:26;;;;;;;5.47;4.77;;;;;;;9.97;100.00;102232.94;6142179;28;20234;-68
2024/02/20 15:14:48;;;;;;;14.53;3.93;;;;;;;9.91;100.00;102241.41;6146673;28;20611;-69
2024/02/20 15:18:09;;;;;;;9.07;4.63;;;;;;;10.01;100.00;102231.78;6228980;23;20231;-68
2024/02/20 15:21:32;;;;;;;12.33;5.07;;;;;;;9.96;100.00;102233.03;6142106;28;20326;-68
2024/02/20 15:24:54;;;;;;;12.40;6.50;;;;;;;9.90;100.00;102223.53;6158633;28;20632;-67
2024/02/20 15:28:15;;;;;;;11.17;6.23;;;;;;;9.82;100.00;102225.00;6146803;28;20568;-67